Time;durP1;ratioP1;P1;durP2;ratioP2;P2;SDS_P1;SDS_P2;PMS_P1;PMS_P2;Temp;Humidity;BMP_temperature;BMP_pressure;BME280_temperature;BME280_humidity;BME280_pressure;Samples;Min_cycle;Max_cycle;Signal;HPM_P1;HPM_P2
2022/02/16 00:01:24;;;;;;;14.48;8.20;;;;;;;11.26;74.16;100315.31;4969576;28;20076;-55
2022/02/16 00:03:50;;;;;;;14.70;7.90;;;;;;;11.27;74.17;100313.59;4973752;28;20939;-54
2022/02/16 00:06:15;;;;;;;14.25;8.10;;;;;;;11.32;74.32;100310.13;4980628;28;20041;-55
2022/02/16 00:08:42;;;;;;;13.55;8.20;;;;;;;11.30;74.19;100305.75;4983961;28;20057;-57
2022/02/16 00:11:08;;;;;;;16.50;8.35;;;;;;;11.31;73.96;100305.75;4977802;28;20038;-53
2022/02/16 00:13:33;;;;;;;12.77;7.93;;;;;;;11.33;74.03;100301.44;4972343;28;20468;-55
2022/02/16 00:15:59;;;;;;;14.80;7.28;;;;;;;11.32;74.21;100301.41;4976877;28;20049;-51
2022/02/16 00:18:24;;;;;;;13.25;7.80;;;;;;;11.30;74.18;100293.56;4974896;28;20046;-55
2022/02/16 00:20:50;;;;;;;13.43;7.60;;;;;;;11.27;74.41;100292.72;4981660;28;20041;-54
2022/02/16 00:23:15;;;;;;;16.15;7.68;;;;;;;11.25;74.18;100287.50;4982913;28;20038;-56
2022/02/16 00:25:40;;;;;;;13.50;7.05;;;;;;;11.25;74.55;100281.41;4975304;28;20769;-56
2022/02/16 00:28:06;;;;;;;12.43;7.28;;;;;;;11.22;74.80;100289.25;4979718;28;20745;-54
2022/02/16 00:30:31;;;;;;;11.95;6.63;;;;;;;11.24;74.43;100285.75;4977429;28;20050;-55
2022/02/16 00:32:57;;;;;;;14.30;7.10;;;;;;;11.23;74.77;100270.94;4979934;28;20033;-55
2022/02/16 00:35:22;;;;;;;15.45;6.68;;;;;;;11.26;74.92;100275.31;4970465;28;21068;-55
2022/02/16 00:37:47;;;;;;;11.02;6.35;;;;;;;11.19;74.65;100269.22;4974325;28;20113;-56
2022/02/16 00:40:13;;;;;;;10.88;6.15;;;;;;;11.10;75.14;100276.16;4964275;28;20053;-55
2022/02/16 00:42:38;;;;;;;11.82;6.28;;;;;;;11.19;74.91;100253.56;4977094;28;20038;-55
2022/02/16 00:45:05;;;;;;;12.00;5.90;;;;;;;11.17;75.09;100251.81;4979544;28;20050;-52
2022/02/16 00:47:32;;;;;;;10.25;5.90;;;;;;;11.21;74.74;100245.75;4970977;28;20026;-54
2022/02/16 00:49:57;;;;;;;9.88;5.78;;;;;;;11.13;74.95;100243.13;4982125;28;20556;-55
2022/02/16 00:52:22;;;;;;;10.75;5.93;;;;;;;11.15;74.65;100225.75;4969765;28;20417;-55
2022/02/16 00:54:48;;;;;;;10.45;5.72;;;;;;;11.14;74.68;100221.38;4982254;28;20409;-54
2022/02/16 00:57:14;;;;;;;11.88;5.60;;;;;;;11.16;74.68;100216.19;4979312;28;20361;-55
2022/02/16 00:59:40;;;;;;;16.25;6.03;;;;;;;11.09;74.87;100212.69;4974174;28;20516;-56
2022/02/16 01:02:05;;;;;;;9.77;5.00;;;;;;;11.08;74.68;100215.28;4972290;28;20129;-55
2022/02/16 01:04:31;;;;;;;14.90;5.53;;;;;;;11.09;74.67;100204.00;4973634;28;20284;-56
2022/02/16 01:06:56;;;;;;;14.25;5.20;;;;;;;11.12;74.58;100199.63;4981337;28;20486;-55
2022/02/16 01:09:21;;;;;;;15.07;4.90;;;;;;;11.10;74.69;100198.75;4974977;28;20380;-53
2022/02/16 01:11:47;;;;;;;13.85;4.80;;;;;;;11.06;74.70;100188.31;4977910;28;20045;-55
2022/02/16 01:14:12;;;;;;;16.05;4.85;;;;;;;11.08;74.58;100184.00;4979868;28;20526;-55
2022/02/16 01:16:38;;;;;;;13.32;5.05;;;;;;;11.05;74.86;100187.44;4971009;28;20069;-56
2022/02/16 01:19:04;;;;;;;16.05;5.13;;;;;;;11.07;74.84;100177.91;4994718;28;20996;-55
2022/02/16 01:21:30;;;;;;;12.75;5.25;;;;;;;11.05;75.06;100177.03;4965333;28;20619;-54
2022/02/16 01:23:55;;;;;;;14.93;5.25;;;;;;;11.15;74.78;100172.69;4984475;28;20042;-53
2022/02/16 01:26:23;;;;;;;16.15;5.43;;;;;;;11.15;75.03;100163.13;4977741;28;20496;-54
2022/02/16 01:28:48;;;;;;;18.27;5.63;;;;;;;11.16;74.97;100149.19;4975288;28;20073;-56
2022/02/16 01:31:14;;;;;;;18.38;6.45;;;;;;;11.13;75.06;100140.50;4981153;28;20136;-56
2022/02/16 01:33:39;;;;;;;22.13;6.50;;;;;;;11.14;75.23;100137.91;4965855;28;20919;-57
2022/02/16 01:36:05;;;;;;;17.10;6.70;;;;;;;11.20;75.25;100137.91;4969537;28;20065;-55
2022/02/16 01:38:30;;;;;;;20.85;6.75;;;;;;;11.22;75.28;100146.56;4968128;28;20084;-56
2022/02/16 01:40:55;;;;;;;22.90;6.75;;;;;;;11.18;75.50;100125.72;4977226;28;20041;-57
2022/02/16 01:43:22;;;;;;;24.67;6.88;;;;;;;11.21;75.89;100112.69;4969326;28;20484;-54
2022/02/16 01:45:47;;;;;;;23.27;6.20;;;;;;;11.26;75.54;100108.31;4969441;28;20060;-56
2022/02/16 01:48:13;;;;;;;23.20;7.03;;;;;;;11.27;75.49;100105.72;4977478;28;20042;-56
2022/02/16 01:50:39;;;;;;;22.55;6.72;;;;;;;11.26;75.53;100101.38;4976756;28;20085;-57
2022/02/16 01:53:04;;;;;;;22.55;6.40;;;;;;;11.33;75.62;100097.88;4981596;28;20053;-53
2022/02/16 01:55:30;;;;;;;21.52;6.57;;;;;;;11.38;75.56;100100.47;4968700;28;20073;-57
2022/02/16 01:57:56;;;;;;;27.25;6.75;;;;;;;11.30;75.78;100084.81;4978669;28;20037;-56
2022/02/16 02:00:22;;;;;;;24.73;7.60;;;;;;;11.42;75.25;100088.25;4981860;28;20042;-55
2022/02/16 02:02:47;;;;;;;25.67;7.05;;;;;;;11.39;75.58;100084.81;4978291;28;21381;-55
2022/02/16 02:05:13;;;;;;;25.83;7.32;;;;;;;11.35;75.67;100076.97;4976871;28;20045;-56
2022/02/16 02:07:40;;;;;;;24.58;7.32;;;;;;;11.42;75.41;100075.22;4967531;28;20037;-53
2022/02/16 02:10:06;;;;;;;23.88;7.70;;;;;;;11.34;75.48;100072.66;4976385;28;20049;-54
2022/02/16 02:12:32;;;;;;;26.08;7.80;;;;;;;11.43;75.18;100072.63;4976878;28;20575;-54
2022/02/16 02:14:57;;;;;;;19.63;7.93;;;;;;;11.46;75.24;100062.19;4976908;28;20108;-56
2022/02/16 02:17:22;;;;;;;20.92;8.45;;;;;;;11.44;75.34;100052.59;4976989;28;20084;-59
2022/02/16 02:19:48;;;;;;;22.75;8.50;;;;;;;11.50;75.08;100060.41;4974821;28;20084;-55
2022/02/16 02:22:13;;;;;;;22.35;9.05;;;;;;;11.48;75.26;100060.41;4979563;28;20050;-56
2022/02/16 02:24:39;;;;;;;24.95;9.13;;;;;;;11.45;75.14;100052.59;4962546;28;20048;-55
2022/02/16 02:27:04;;;;;;;20.23;8.23;;;;;;;11.46;75.43;100051.75;4979512;28;20053;-55
2022/02/16 02:29:31;;;;;;;22.60;8.52;;;;;;;11.49;75.13;100062.16;4966889;28;20374;-58
2022/02/16 02:31:57;;;;;;;22.75;8.68;;;;;;;11.54;74.87;100055.16;4980413;28;20073;-55
2022/02/16 02:34:28;;;;;;;23.17;9.00;;;;;;;11.48;75.03;100036.91;4971662;28;20591;-55
2022/02/16 02:36:54;;;;;;;27.35;9.25;;;;;;;11.44;75.19;100037.81;4980882;28;20061;-56
2022/02/16 02:39:19;;;;;;;20.60;8.55;;;;;;;11.46;75.31;100036.06;4974414;28;20049;-55
2022/02/16 02:41:44;;;;;;;23.73;9.13;;;;;;;11.50;75.18;100029.97;4975582;28;20401;-56
2022/02/16 02:44:10;;;;;;;23.30;9.30;;;;;;;11.50;75.17;100026.47;4976479;28;20417;-56
2022/02/16 02:46:35;;;;;;;21.20;9.57;;;;;;;11.50;75.17;100010.81;4978329;28;20038;-56
2022/02/16 02:49:00;;;;;;;22.05;10.10;;;;;;;11.51;74.84;100000.38;4972699;28;21146;-56
2022/02/16 02:51:26;;;;;;;19.13;10.10;;;;;;;11.41;75.47;99993.44;4973243;28;20034;-57
2022/02/16 02:53:52;;;;;;;23.77;10.80;;;;;;;11.45;75.47;99984.75;4975934;28;20044;-57
2022/02/16 02:56:17;;;;;;;24.63;10.88;;;;;;;11.47;75.25;99985.59;4980103;28;20046;-57
2022/02/16 02:58:42;;;;;;;19.05;10.70;;;;;;;11.51;75.39;99987.31;4983387;28;20072;-56
2022/02/16 03:01:08;;;;;;;21.20;10.98;;;;;;;11.50;75.34;99992.56;4978814;28;20046;-57
2022/02/16 03:03:37;;;;;;;22.73;11.63;;;;;;;11.47;75.02;99982.09;4974637;28;20053;-57
2022/02/16 03:06:04;;;;;;;21.27;11.52;;;;;;;11.45;75.30;99978.66;4979297;28;20038;-56
2022/02/16 03:08:29;;;;;;;20.05;10.82;;;;;;;11.50;75.27;99969.06;4981021;28;20465;-57
2022/02/16 03:10:54;;;;;;;21.52;10.95;;;;;;;11.50;75.18;99974.28;4984795;28;20845;-56
2022/02/16 03:13:20;;;;;;;21.13;11.43;;;;;;;11.47;75.49;99958.63;4973767;28;20022;-56
2022/02/16 03:15:49;;;;;;;20.73;11.10;;;;;;;11.44;75.51;99956.03;4978499;28;20564;-55
2022/02/16 03:18:15;;;;;;;16.98;11.30;;;;;;;11.52;75.32;99952.53;4971642;28;20038;-56
2022/02/16 03:20:41;;;;;;;20.83;10.60;;;;;;;11.56;75.01;99948.16;4981214;28;20049;-55
2022/02/16 03:23:07;;;;;;;18.58;10.88;;;;;;;11.44;75.50;99935.16;4980647;28;20510;-53
2022/02/16 03:25:32;;;;;;;21.70;10.38;;;;;;;11.47;75.18;99935.13;4971313;28;20064;-54
2022/02/16 03:27:57;;;;;;;17.60;10.73;;;;;;;11.43;75.03;99923.84;4979976;28;20054;-55
2022/02/16 03:30:23;;;;;;;17.73;10.50;;;;;;;11.32;75.32;99908.25;4976396;28;20570;-55
2022/02/16 03:32:49;;;;;;;16.00;9.85;;;;;;;11.49;74.97;99905.53;4980164;28;20037;-52
2022/02/16 03:35:14;;;;;;;14.43;10.07;;;;;;;11.50;74.83;99883.78;4980041;28;20140;-56
2022/02/16 03:37:40;;;;;;;14.18;9.20;;;;;;;11.47;74.69;99875.09;4976338;28;20298;-54
2022/02/16 03:40:06;;;;;;;13.40;9.02;;;;;;;11.38;74.62;99881.25;4974952;28;20050;-54
2022/02/16 03:42:31;;;;;;;13.95;9.23;;;;;;;11.45;74.44;99882.97;4978302;28;20045;-56
2022/02/16 03:44:57;;;;;;;12.80;8.65;;;;;;;11.33;74.41;99868.25;4977763;28;20109;-53
2022/02/16 03:47:22;;;;;;;11.90;8.23;;;;;;;11.34;74.74;99879.56;4966002;28;20076;-55
2022/02/16 03:49:48;;;;;;;11.13;7.70;;;;;;;11.40;74.32;99874.28;4974311;28;20065;-55
2022/02/16 03:52:13;;;;;;;9.75;6.57;;;;;;;11.32;74.52;99863.03;4980905;28;20125;-54
2022/02/16 03:54:38;;;;;;;11.30;6.88;;;;;;;11.44;73.86;99849.03;4979523;28;20920;-55
2022/02/16 03:57:04;;;;;;;10.10;6.28;;;;;;;11.29;74.10;99843.03;4984148;28;20057;-54
2022/02/16 03:59:29;;;;;;;8.05;5.60;;;;;;;11.21;74.33;99844.84;4965938;28;20594;-55
2022/02/16 04:01:55;;;;;;;9.07;5.72;;;;;;;11.22;74.07;99830.06;4982131;28;20045;-54
2022/02/16 04:04:21;;;;;;;7.85;5.53;;;;;;;11.30;74.10;99830.84;4982729;28;20540;-55
2022/02/16 04:06:46;;;;;;;9.60;6.38;;;;;;;11.20;74.23;99819.63;4974152;28;20054;-55
2022/02/16 04:09:13;;;;;;;9.13;7.35;;;;;;;11.21;74.56;99821.34;4976168;28;20822;-56
2022/02/16 04:11:39;;;;;;;10.00;7.10;;;;;;;11.22;74.86;99815.22;4962254;28;20022;-56
2022/02/16 04:14:04;;;;;;;10.75;7.38;;;;;;;11.31;74.67;99798.66;4969293;28;20096;-56
2022/02/16 04:16:30;;;;;;;9.25;7.03;;;;;;;11.47;74.09;99796.78;4981486;28;20038;-56
2022/02/16 04:18:55;;;;;;;9.30;7.03;;;;;;;11.43;74.66;99793.34;4966912;28;20042;-54
2022/02/16 04:21:20;;;;;;;8.68;6.60;;;;;;;11.48;74.16;99788.97;4979445;28;20902;-52
2022/02/16 04:23:46;;;;;;;8.95;6.72;;;;;;;11.38;74.85;99776.88;4972906;28;20041;-57
2022/02/16 04:26:12;;;;;;;8.43;6.93;;;;;;;11.37;75.17;99782.97;4994688;28;20038;-55
2022/02/16 04:28:37;;;;;;;8.48;6.47;;;;;;;11.41;75.04;99776.84;4994756;28;20041;-56
2022/02/16 04:31:03;;;;;;;9.30;6.68;;;;;;;11.50;74.87;99768.09;4980647;28;20045;-53
2022/02/16 04:33:28;;;;;;;9.73;7.05;;;;;;;11.43;74.85;99756.81;4974822;28;20052;-56
2022/02/16 04:35:54;;;;;;;11.05;7.68;;;;;;;11.43;75.39;99748.13;4971546;28;20069;-55
2022/02/16 04:38:19;;;;;;;10.82;7.88;;;;;;;11.36;75.58;99739.47;4981989;28;20111;-57
2022/02/16 04:40:45;;;;;;;12.52;8.00;;;;;;;11.31;76.01;99730.81;4981553;28;20227;-55
2022/02/16 04:43:14;;;;;;;11.40;8.38;;;;;;;11.27;75.90;99729.13;4975432;28;20045;-56
2022/02/16 04:45:39;;;;;;;11.85;8.48;;;;;;;11.38;75.52;99717.72;4972623;28;20623;-56
2022/02/16 04:48:06;;;;;;;11.38;8.40;;;;;;;11.39;75.56;99706.41;4974731;28;20379;-51
2022/02/16 04:50:32;;;;;;;12.00;9.15;;;;;;;11.18;76.44;99701.34;4975115;28;20128;-56
2022/02/16 04:52:57;;;;;;;12.82;9.63;;;;;;;11.22;76.48;99684.78;4980025;28;20455;-57
2022/02/16 04:55:24;;;;;;;12.52;9.38;;;;;;;11.26;76.06;99690.88;4975469;28;20058;-60
2022/02/16 04:57:52;;;;;;;12.30;9.23;;;;;;;11.37;76.35;99692.50;4979934;28;20038;-54
2022/02/16 05:00:17;;;;;;;13.02;9.57;;;;;;;11.42;76.38;99678.53;4964128;28;20071;-53
2022/02/16 05:02:43;;;;;;;12.00;9.27;;;;;;;11.40;75.92;99683.78;4978072;28;20053;-53
2022/02/16 05:05:09;;;;;;;12.60;9.02;;;;;;;11.22;77.03;99684.78;4975520;28;20045;-55
2022/02/16 05:07:35;;;;;;;11.02;8.48;;;;;;;11.33;76.75;99671.69;4961261;28;20050;-55
2022/02/16 05:10:00;;;;;;;10.88;8.25;;;;;;;11.39;76.65;99659.44;4966353;28;20496;-56
2022/02/16 05:12:26;;;;;;;11.18;7.55;;;;;;;11.48;76.12;99661.06;4979742;28;20036;-55
2022/02/16 05:14:51;;;;;;;10.27;7.13;;;;;;;11.57;75.89;99658.41;4981673;28;20049;-55
2022/02/16 05:17:17;;;;;;;11.15;7.50;;;;;;;11.35;76.30;99659.47;4977744;28;20501;-57
2022/02/16 05:19:43;;;;;;;9.27;7.20;;;;;;;11.49;76.37;99652.38;4975851;28;20947;-55
2022/02/16 05:22:08;;;;;;;9.18;6.60;;;;;;;11.40;76.84;99642.03;4987984;28;20042;-57
2022/02/16 05:24:34;;;;;;;8.55;6.40;;;;;;;11.51;77.08;99639.31;4979535;28;20512;-57
2022/02/16 05:26:59;;;;;;;10.52;6.25;;;;;;;11.42;77.29;99634.19;4980167;28;20048;-57
2022/02/16 05:29:25;;;;;;;7.65;5.97;;;;;;;11.38;77.51;99617.69;4971423;28;20045;-59
2022/02/16 05:31:50;;;;;;;8.90;6.35;;;;;;;11.56;77.29;99622.72;4981277;28;20068;-55
2022/02/16 05:34:16;;;;;;;9.82;6.43;;;;;;;11.66;76.65;99610.44;4981009;28;20584;-57
2022/02/16 05:36:42;;;;;;;9.30;6.20;;;;;;;11.69;76.37;99600.84;4975460;28;20042;-58
2022/02/16 05:39:08;;;;;;;7.65;5.78;;;;;;;11.58;76.73;99587.03;4964218;28;20134;-55
2022/02/16 05:41:33;;;;;;;8.95;6.22;;;;;;;11.52;77.20;99591.47;4973775;28;20053;-56
2022/02/16 05:43:58;;;;;;;9.25;5.75;;;;;;;11.69;77.13;99581.69;4973615;28;20461;-56
2022/02/16 05:46:24;;;;;;;7.85;5.70;;;;;;;11.75;76.64;99579.03;4975930;28;20046;-57
2022/02/16 05:48:50;;;;;;;6.75;5.07;;;;;;;11.78;76.36;99579.00;4972945;28;20129;-58
2022/02/16 05:51:16;;;;;;;7.07;4.40;;;;;;;11.74;76.73;99575.56;4972989;28;20501;-57
2022/02/16 05:53:42;;;;;;;6.30;4.65;;;;;;;11.87;76.15;99573.66;4973417;28;20228;-56
2022/02/16 05:56:07;;;;;;;6.93;4.60;;;;;;;11.73;76.71;99575.53;4973181;28;20707;-57
2022/02/16 05:58:33;;;;;;;8.40;4.32;;;;;;;11.85;76.56;99553.66;4975125;28;20058;-59
2022/02/16 06:01:02;;;;;;;5.78;3.90;;;;;;;11.81;76.55;99558.06;4974437;28;20551;-58
2022/02/16 06:03:27;;;;;;;5.75;3.80;;;;;;;11.83;76.37;99566.75;4972496;28;20061;-58
2022/02/16 06:05:53;;;;;;;5.72;3.92;;;;;;;11.85;76.44;99562.38;4964209;28;20486;-58
2022/02/16 06:08:19;;;;;;;5.07;3.50;;;;;;;11.68;77.04;99565.16;4979223;28;20529;-59
2022/02/16 06:10:44;;;;;;;5.50;3.63;;;;;;;11.86;76.61;99568.47;4980186;28;20052;-58
2022/02/16 06:13:14;;;;;;;4.95;3.67;;;;;;;11.88;76.85;99559.72;4979789;28;20041;-57
2022/02/16 06:15:40;;;;;;;4.97;3.53;;;;;;;11.86;76.66;99556.25;4971746;28;21252;-58
2022/02/16 06:18:05;;;;;;;5.80;3.42;;;;;;;11.91;76.74;99569.25;4976410;28;20046;-57
2022/02/16 06:20:30;;;;;;;4.50;3.67;;;;;;;11.95;76.69;99557.91;4980796;28;20048;-58
2022/02/16 06:22:56;;;;;;;6.57;3.90;;;;;;;11.97;76.60;99561.34;4977729;28;20050;-59
2022/02/16 06:25:24;;;;;;;5.55;4.10;;;;;;;11.95;76.67;99563.13;4976785;28;20074;-57
2022/02/16 06:27:51;;;;;;;5.78;3.80;;;;;;;11.95;76.68;99557.91;4977827;28;20034;-57
2022/02/16 06:30:17;;;;;;;5.57;3.75;;;;;;;11.95;76.86;99552.69;4978532;28;20050;-58
2022/02/16 06:32:44;;;;;;;5.10;3.85;;;;;;;11.91;76.91;99545.75;4979525;28;20038;-57
2022/02/16 06:35:11;;;;;;;5.82;4.00;;;;;;;11.97;77.06;99564.81;4981797;28;20042;-58
2022/02/16 06:37:36;;;;;;;5.25;3.92;;;;;;;12.06;76.80;99569.94;4973986;28;20381;-55
2022/02/16 06:40:02;;;;;;;4.78;3.45;;;;;;;12.02;76.78;99575.19;4978617;28;20479;-57
2022/02/16 06:42:27;;;;;;;4.55;3.15;;;;;;;12.08;76.58;99578.59;4984626;28;20049;-57
2022/02/16 06:44:53;;;;;;;4.97;3.28;;;;;;;12.10;76.56;99563.78;4981123;28;20425;-56
2022/02/16 06:47:18;;;;;;;5.10;2.58;;;;;;;12.15;76.73;99579.38;4981995;28;20033;-56
2022/02/16 06:49:44;;;;;;;2.95;2.40;;;;;;;12.14;76.54;99577.66;4963441;28;20070;-55
2022/02/16 06:52:09;;;;;;;4.38;2.70;;;;;;;12.18;76.84;99581.97;4982351;28;20359;-55
2022/02/16 06:54:34;;;;;;;5.28;2.75;;;;;;;12.18;76.99;99567.16;4982802;28;20428;-55
2022/02/16 06:57:00;;;;;;;4.55;2.50;;;;;;;12.10;77.49;99569.00;4982280;28;20133;-55
2022/02/16 06:59:25;;;;;;;5.22;2.67;;;;;;;12.20;77.33;99554.03;4973493;28;20498;-56
2022/02/16 07:01:51;;;;;;;4.10;2.65;;;;;;;12.27;77.28;99563.53;4980063;28;20117;-56
2022/02/16 07:04:16;;;;;;;4.80;3.08;;;;;;;12.33;77.15;99562.56;4983594;28;20124;-54
2022/02/16 07:06:42;;;;;;;7.57;3.28;;;;;;;12.38;76.81;99566.84;4976700;28;20587;-55
2022/02/16 07:09:07;;;;;;;8.43;3.83;;;;;;;12.27;77.33;99558.31;4978519;28;20045;-55
2022/02/16 07:11:32;;;;;;;8.85;4.00;;;;;;;12.37;77.15;99564.28;4977288;28;20042;-58
2022/02/16 07:13:58;;;;;;;9.55;4.00;;;;;;;12.50;77.31;99579.72;4975443;28;20769;-53
2022/02/16 07:16:23;;;;;;;10.77;3.83;;;;;;;12.54;77.08;99580.56;4978826;28;20249;-56
2022/02/16 07:18:49;;;;;;;8.95;3.92;;;;;;;12.62;77.01;99589.16;4983891;28;20104;-56
2022/02/16 07:21:14;;;;;;;11.57;4.05;;;;;;;12.75;76.63;99589.81;4982863;28;20042;-55
2022/02/16 07:23:40;;;;;;;10.82;4.45;;;;;;;12.66;76.97;99572.53;4975011;28;20047;-56
2022/02/16 07:26:07;;;;;;;12.75;4.38;;;;;;;12.75;76.83;99575.00;4975649;28;20069;-57
2022/02/16 07:28:32;;;;;;;10.20;4.05;;;;;;;12.70;77.13;99565.50;4980462;28;20066;-55
2022/02/16 07:30:58;;;;;;;11.30;3.55;;;;;;;12.75;77.00;99590.69;4985234;28;20107;-56
2022/02/16 07:33:24;;;;;;;13.52;3.70;;;;;;;12.79;76.90;99592.38;4973695;28;20038;-61
2022/02/16 07:35:50;;;;;;;13.65;3.83;;;;;;;12.70;77.25;99591.66;4981385;28;20152;-57
2022/02/16 07:38:16;;;;;;;12.23;4.10;;;;;;;12.68;77.41;99569.91;4973242;28;20050;-54
2022/02/16 07:40:41;;;;;;;10.07;4.07;;;;;;;12.83;77.06;99591.44;4979049;28;20523;-56
2022/02/16 07:43:06;;;;;;;14.85;4.38;;;;;;;12.81;77.27;99589.72;4970501;28;20972;-56
2022/02/16 07:45:32;;;;;;;15.55;4.68;;;;;;;12.93;76.67;99598.22;4973402;28;20522;-55
2022/02/16 07:48:00;;;;;;;15.82;4.60;;;;;;;12.87;76.97;99603.56;4973250;28;20050;-56
2022/02/16 07:50:25;;;;;;;16.63;5.38;;;;;;;12.81;76.88;99619.34;4976613;28;20053;-56
2022/02/16 07:52:50;;;;;;;18.42;5.70;;;;;;;12.88;76.62;99625.34;4975706;28;20057;-56
2022/02/16 07:55:16;;;;;;;16.65;5.22;;;;;;;12.96;76.50;99621.75;4979004;28;20590;-56
2022/02/16 07:57:43;;;;;;;15.35;5.28;;;;;;;12.99;76.34;99631.31;4972534;28;21770;-58
2022/02/16 08:00:09;;;;;;;18.05;6.20;;;;;;;12.95;76.08;99622.63;4984194;28;20096;-53
2022/02/16 08:02:34;;;;;;;21.58;6.82;;;;;;;12.87;76.17;99637.56;4980184;28;20030;-54
2022/02/16 08:05:00;;;;;;;24.08;7.20;;;;;;;12.86;76.72;99628.00;4975759;28;20041;-55
2022/02/16 08:07:25;;;;;;;19.52;7.63;;;;;;;12.89;76.20;99640.16;4975027;28;20178;-55
2022/02/16 08:09:50;;;;;;;25.40;7.72;;;;;;;12.94;75.89;99628.75;4976757;28;20041;-56
2022/02/16 08:12:16;;;;;;;22.58;7.40;;;;;;;12.95;75.70;99627.84;4982342;28;20054;-58
2022/02/16 08:14:41;;;;;;;31.65;7.55;;;;;;;12.98;75.67;99629.56;4977233;28;20045;-56
2022/02/16 08:17:08;;;;;;;23.67;6.72;;;;;;;13.01;75.43;99651.31;4980532;28;20482;-52
2022/02/16 08:19:34;;;;;;;21.98;6.65;;;;;;;13.07;75.29;99636.38;4964637;28;20457;-55
2022/02/16 08:21:59;;;;;;;28.70;6.55;;;;;;;13.03;75.37;99640.81;4976377;28;20045;-56
2022/02/16 08:24:25;;;;;;;26.88;6.50;;;;;;;12.91;75.64;99635.78;4979764;28;20077;-55
2022/02/16 08:26:52;;;;;;;25.75;6.10;;;;;;;13.12;75.33;99626.69;4978973;28;20090;-55
2022/02/16 08:29:19;;;;;;;30.10;6.10;;;;;;;13.10;75.28;99628.50;4984136;28;20905;-56
2022/02/16 08:31:46;;;;;;;30.23;6.45;;;;;;;13.17;75.22;99617.94;4968582;28;20056;-58
2022/02/16 08:34:12;;;;;;;31.63;6.95;;;;;;;13.23;75.04;99617.84;4973675;28;20034;-57
2022/02/16 08:36:38;;;;;;;30.00;7.20;;;;;;;13.12;75.12;99608.38;4975120;28;20509;-57
2022/02/16 08:39:04;;;;;;;27.77;7.22;;;;;;;13.26;74.67;99614.28;4975876;28;20049;-58
2022/02/16 08:41:29;;;;;;;28.85;6.55;;;;;;;13.22;74.55;99623.09;4972090;28;20646;-56
2022/02/16 08:43:54;;;;;;;35.15;6.43;;;;;;;13.36;74.17;99616.72;4978092;28;20042;-57
2022/02/16 08:46:20;;;;;;;28.05;5.65;;;;;;;13.32;74.28;99617.66;4978329;28;20489;-57
2022/02/16 08:48:45;;;;;;;27.88;5.22;;;;;;;13.46;74.09;99627.03;4976304;28;20576;-57
2022/02/16 08:51:11;;;;;;;28.73;5.35;;;;;;;13.28;74.35;99634.31;4970291;28;20053;-58
2022/02/16 08:53:37;;;;;;;22.85;5.13;;;;;;;13.42;74.12;99618.34;4975269;28;20653;-56
2022/02/16 08:56:03;;;;;;;24.65;4.38;;;;;;;13.55;74.02;99639.94;4973956;28;20034;-56
2022/02/16 08:58:28;;;;;;;24.35;4.30;;;;;;;13.48;73.77;99635.72;4978579;28;20245;-58
2022/02/16 09:00:55;;;;;;;21.45;4.40;;;;;;;13.49;73.68;99616.47;4975613;28;20045;-57
2022/02/16 09:03:21;;;;;;;21.02;4.32;;;;;;;13.62;73.21;99654.66;4979205;28;20042;-56
2022/02/16 09:05:46;;;;;;;23.67;4.28;;;;;;;13.78;73.09;99638.59;4979324;28;20230;-58
2022/02/16 09:08:12;;;;;;;27.55;3.85;;;;;;;13.80;72.67;99646.44;4966767;28;20534;-57
2022/02/16 09:10:38;;;;;;;24.80;4.50;;;;;;;14.02;72.10;99642.53;4976436;28;20049;-58
2022/02/16 09:13:03;;;;;;;24.08;4.57;;;;;;;14.04;71.93;99638.09;4979805;28;20042;-57
2022/02/16 09:15:28;;;;;;;21.67;4.35;;;;;;;14.07;71.68;99645.06;4969347;28;20041;-58
2022/02/16 09:17:54;;;;;;;24.45;4.15;;;;;;;14.14;71.88;99644.03;4977666;28;20041;-58
2022/02/16 09:20:20;;;;;;;26.05;4.75;;;;;;;14.30;71.28;99649.81;4974816;28;20045;-58
2022/02/16 09:22:46;;;;;;;25.70;4.32;;;;;;;14.31;71.03;99627.94;4977484;28;20042;-57
2022/02/16 09:25:11;;;;;;;21.88;3.67;;;;;;;14.35;70.52;99640.09;4976796;28;20538;-55
2022/02/16 09:27:37;;;;;;;31.65;4.38;;;;;;;14.36;70.67;99623.47;4971748;28;20358;-57
2022/02/16 09:30:05;;;;;;;25.05;3.92;;;;;;;14.42;70.94;99632.09;4977904;28;20046;-56
2022/02/16 09:32:30;;;;;;;21.55;4.20;;;;;;;14.49;70.24;99631.06;4973511;28;21179;-57
2022/02/16 09:34:56;;;;;;;24.77;3.90;;;;;;;14.48;70.45;99629.34;4977606;28;20348;-57
2022/02/16 09:37:22;;;;;;;24.38;4.40;;;;;;;14.49;70.42;99627.56;4973789;28;20466;-54
2022/02/16 09:39:47;;;;;;;22.88;3.90;;;;;;;14.69;69.98;99643.72;4975649;28;20061;-57
2022/02/16 09:42:13;;;;;;;24.70;3.95;;;;;;;14.74;69.77;99651.50;4982170;28;20116;-58
2022/02/16 09:44:50;;;;;;;19.58;3.92;;;;;;;14.60;69.93;99642.16;4973634;28;20040;-57
2022/02/16 09:47:15;;;;;;;20.90;4.25;;;;;;;14.69;69.71;99638.50;4980894;28;20053;-57
2022/02/16 09:49:41;;;;;;;23.67;3.83;;;;;;;14.64;69.82;99635.09;4971145;28;20141;-57
2022/02/16 09:52:09;;;;;;;21.38;3.55;;;;;;;14.50;70.13;99630.16;4970329;28;20037;-58
2022/02/16 09:54:36;;;;;;;22.02;4.00;;;;;;;14.56;69.74;99622.16;4975675;28;20129;-57
2022/02/16 09:57:02;;;;;;;18.88;3.75;;;;;;;14.70;69.66;99636.72;4979138;28;20081;-55
2022/02/16 09:59:27;;;;;;;19.00;3.72;;;;;;;14.77;69.06;99648.78;4970738;28;20568;-57
2022/02/16 10:02:02;;;;;;;19.75;3.78;;;;;;;14.80;69.18;99648.72;4977077;28;20049;-57
2022/02/16 10:04:31;;;;;;;29.55;4.18;;;;;;;14.72;69.54;99653.28;4978065;28;20604;-57
2022/02/16 10:06:56;;;;;;;22.83;3.60;;;;;;;14.75;69.15;99633.09;4976236;28;20056;-56
2022/02/16 10:09:38;;;;;;;21.90;4.10;;;;;;;14.67;69.26;99626.28;4970599;28;20041;-57
2022/02/16 10:12:06;;;;;;;20.10;3.97;;;;;;;14.56;69.69;99627.41;4978247;28;20070;-57
2022/02/16 10:14:32;;;;;;;25.63;4.20;;;;;;;14.47;69.81;99629.34;4974291;28;20042;-58
2022/02/16 10:17:02;;;;;;;24.38;3.92;;;;;;;14.40;70.17;99593.69;4979086;28;20490;-57
2022/02/16 10:19:45;;;;;;;17.67;4.20;;;;;;;14.45;69.99;99590.09;4966124;28;20594;-56
2022/02/16 10:22:11;;;;;;;20.35;4.22;;;;;;;14.44;70.07;99606.72;4974653;28;20060;-56
2022/02/16 10:24:36;;;;;;;17.25;3.85;;;;;;;14.46;70.49;99606.66;4978230;28;20575;-57
2022/02/16 10:27:03;;;;;;;18.85;4.13;;;;;;;14.45;70.33;99608.44;4978241;28;20811;-58
2022/02/16 10:29:34;;;;;;;16.42;4.03;;;;;;;14.50;70.41;99621.44;4961402;28;20030;-56
2022/02/16 10:32:01;;;;;;;17.35;4.15;;;;;;;14.42;70.67;99600.63;4976750;28;20104;-57
2022/02/16 10:34:47;;;;;;;21.15;3.47;;;;;;;14.50;70.66;99605.69;4978052;28;20093;-56
2022/02/16 10:37:13;;;;;;;17.48;3.05;;;;;;;14.53;70.67;99600.38;4970642;28;20709;-56
2022/02/16 10:39:39;;;;;;;16.08;3.40;;;;;;;14.65;70.15;99599.22;4970582;28;20232;-57
2022/02/16 10:42:09;;;;;;;18.35;3.10;;;;;;;14.62;70.26;99600.19;4977109;28;20069;-58
2022/02/16 10:44:35;;;;;;;19.05;2.90;;;;;;;14.76;69.71;99621.69;4968544;28;20544;-57
2022/02/16 10:47:03;;;;;;;13.50;2.67;;;;;;;14.71;69.64;99606.94;4979021;28;20141;-58
2022/02/16 10:49:30;;;;;;;20.70;3.15;;;;;;;14.71;69.46;99613.06;4962539;28;20073;-58
2022/02/16 10:52:11;;;;;;;14.05;2.58;;;;;;;14.80;69.09;99610.25;4967242;28;20931;-57
2022/02/16 10:54:38;;;;;;;22.70;3.03;;;;;;;14.79;68.99;99628.63;4980969;28;20140;-57
2022/02/16 10:57:04;;;;;;;20.27;3.05;;;;;;;14.70;69.08;99666.41;4974920;28;20063;-58
2022/02/16 10:59:30;;;;;;;15.88;3.10;;;;;;;14.83;68.85;99664.38;4968620;28;20121;-56
2022/02/16 11:01:57;;;;;;;21.60;3.28;;;;;;;14.82;68.76;99663.50;4980168;28;20095;-58
2022/02/16 11:04:26;;;;;;;16.95;3.25;;;;;;;14.83;68.50;99659.13;4967939;28;20446;-56
2022/02/16 11:06:53;;;;;;;16.33;3.03;;;;;;;14.67;69.11;99677.00;4974050;28;20050;-55
2022/02/16 11:09:24;;;;;;;19.00;3.05;;;;;;;14.61;69.03;99640.41;4974393;28;20038;-55
2022/02/16 11:11:53;;;;;;;23.88;3.47;;;;;;;14.72;68.94;99632.28;4975412;28;20042;-55
2022/02/16 11:14:24;;;;;;;15.80;2.95;;;;;;;14.83;68.42;99636.38;4973889;28;20045;-54
2022/02/16 11:16:51;;;;;;;17.38;2.85;;;;;;;14.77;68.61;99635.66;4996237;28;20038;-57
2022/02/16 11:19:24;;;;;;;18.92;3.20;;;;;;;14.84;68.14;99653.00;4979337;28;20152;-57